CYDF/YDF METAR and TAF weather

Enter ICAO airport designator
Station Type Date Time Source
CYDF METAR 2019/05/27 09:00 UTC NOAA

CYDF 270900Z 03003KT 15SM BKN150 04/02 A2997 RMK AC7 SLP152


Station Type Date Time Source
CYDF Decoded METAR 2019/05/27 09:00 UTC NOAA

Deer Lake, Nfld., Canada (CYDF) 49-13N 057-24W 22M
May 27, 2019 - 05:00 AM EDT / 2019.05.27 0900 UTC
Wind: from the NNE (030 degrees) at 3 MPH (3 KT):0
Visibility: 15 mile(s):0
Sky conditions: mostly cloudy
Temperature: 39 F (4 C)
Dew Point: 35 F (2 C)
Relative Humidity: 86%
Pressure (altimeter): 29.97 in. Hg (1014 hPa)
ob: CYDF 270900Z 03003KT 15SM BKN150 04/02 A2997 RMK AC7 SLP152
cycle: 9

Station Type Date Time Source
CYDF TAF 2019/05/27 08:48 UTC NOAA

TAF CYDF 270746Z 2708/2720 07005KT P6SM BKN090
TEMPO 2708/2711 P6SM -SHRA BKN040
FM271100 VRB03KT P6SM FEW006 BKN080
RMK NXT FCST BY 271400Z

Example: see airport list